首页
METAR-TAF:

METAR-TAF

机场 :

瓦爾納, 保加利亚

纬度: 43-12N, 经度: 027-55E, 海拔: 41米

当前天气观测

该预报发布于16分钟前的21:00 UTC
静风
温度 9°C
湿度 100%
气压 1007 hPa
能见度10公里或以上
1500米以下无云,无积雨云

METAR: LBWN 142100Z 00000KT CAVOK 09/09 Q1007 NOSIG

时间: 23:16 (21:16 UTC)

预报

该预报发布于4小时和16分钟前的17:00 UTC
预报有效从14日的 18点(UTC)到 15日的 18点(UTC)
风速4节,风向多变
能见度10公里或以上
散云层高于4000英尺
成为
从 14日的 20点(UTC)到 14日的 22点(UTC)
风速12节,风向西转西北
散云层高于2000英尺
多云层高于4000英尺
短暂存在
从 14日的 22点(UTC)到 15日的 06点(UTC)
能見度: 5000
多云层高于1500英尺
阴天层高于2500英尺
成为
从 15日的 11点(UTC)到 15日的 13点(UTC)
风速8节,风向
散云层高于4000英尺

TAF: LBWN 141700Z 1418/1518 VRB04KT 9999 SCT040 BECMG 1420/1422 29012KT SCT020 BKN040 TEMPO 1422/1506 5000 RA BKN015 OVC025 BECMG 1511/1513 10008KT SCT040

超过4000个机场的气象观测和天气预报(METAR&TAF报告)。

可查询的气象台以黄色和红色小点在地图上表示。

将鼠标移到小点上方,可查看气象台名称。

然后点击查看天气观测和预报。

如需切换地图:点击带黑十字的绿色按钮放大地图;点击带横线的绿色按钮缩小地图;或者点击绿色箭头查看邻近地区的地图。


METAR-TAF: